Peabody, Kentucky
Current Conditions -  °F | °C
As of 7:53 PM on Wednesday 22 Oct 2014 (Local Time) from KLOZ Reporting Station
Overcast Overcast  
Wind Chill: 49°   Ceiling: 3200
Heat Index: 49°   Visibility: 10mi
Dew Point: 40°   Wind: 3mph
Humidity: 71%   Direction: 310°NW
Pressure: 30.24"   Gusts: NA
Location:  37.1553°N, 83.623°W
Report Text: KLOZ 222353Z AUTO 31003KT 10SM OVC032 09/04 A3024 RMK AO2 SLP244 T00940044 10100 20094 56000
Loading
Personal Weather Stations






























Interactive Weather Map
Tropical Storm Tracking
New forecast layout! Learn more

10-Day Weather Forecast

Advertisements
Track Severe Weather on mobile